createdAt,value
2023-02-13T00:02:25.851Z,8.60
2023-02-13T00:04:55.069Z,7.87
2023-02-13T00:07:24.362Z,8.33
2023-02-13T00:09:53.528Z,8.57
2023-02-13T00:12:24.281Z,8.77
2023-02-13T00:14:55.827Z,8.23
2023-02-13T00:17:25.564Z,8.40
2023-02-13T00:19:54.927Z,8.47
2023-02-13T00:22:24.280Z,7.43
2023-02-13T00:24:53.573Z,7.87
2023-02-13T00:27:24.052Z,7.60
2023-02-13T00:29:53.284Z,7.73
2023-02-13T00:32:22.550Z,8.20
2023-02-13T00:34:52.044Z,8.50
2023-02-13T00:37:23.961Z,8.03
2023-02-13T00:39:56.223Z,7.23
2023-02-13T00:42:26.783Z,8.23
2023-02-13T00:44:56.120Z,7.83
2023-02-13T00:47:25.639Z,7.33
2023-02-13T00:49:54.677Z,8.10
2023-02-13T00:52:24.076Z,8.07
2023-02-13T00:54:53.237Z,6.70
2023-02-13T00:57:22.387Z,7.43
2023-02-13T00:59:52.834Z,7.20
2023-02-13T01:02:21.996Z,7.27
2023-02-13T01:04:51.239Z,8.47
2023-02-13T01:07:21.057Z,7.57
2023-02-13T01:09:50.299Z,8.40
2023-02-13T01:12:20.013Z,8.83
2023-02-13T01:14:49.204Z,9.50
2023-02-13T01:17:21.797Z,8.77
2023-02-13T01:19:51.143Z,9.30
2023-02-13T01:22:20.786Z,10.77
2023-02-13T01:24:51.520Z,10.20
2023-02-13T01:27:20.856Z,8.80
2023-02-13T01:29:50.663Z,9.23
2023-02-13T01:32:22.650Z,10.33
2023-02-13T01:34:52.167Z,9.10
2023-02-13T01:37:21.206Z,8.37
2023-02-13T01:39:50.737Z,9.87
2023-02-13T01:42:26.616Z,9.93
2023-02-13T01:44:58.505Z,9.30
2023-02-13T01:47:40.484Z,9.40
2023-02-13T01:50:13.939Z,9.53
2023-02-13T01:52:48.179Z,8.90
2023-02-13T01:55:18.401Z,10.30
2023-02-13T01:57:54.972Z,8.53
2023-02-13T02:00:27.863Z,10.13
2023-02-13T02:03:05.168Z,9.53
2023-02-13T02:05:37.532Z,9.67
2023-02-13T02:08:10.573Z,10.27
2023-02-13T02:10:47.844Z,10.17
2023-02-13T02:13:19.271Z,9.33
2023-02-13T02:15:50.978Z,9.47
2023-02-13T02:18:23.585Z,10.67
2023-02-13T02:21:30.080Z,10.33
2023-02-13T02:24:32.867Z,9.60
2023-02-13T02:27:42.652Z,9.10
2023-02-13T02:30:46.902Z,9.90
2023-02-13T02:33:30.919Z,9.63
2023-02-13T02:36:19.964Z,10.47
2023-02-13T02:39:03.454Z,9.70
2023-02-13T02:41:50.103Z,10.13
2023-02-13T02:44:34.003Z,9.80
2023-02-13T02:47:30.734Z,9.27
2023-02-13T02:50:15.759Z,9.97
2023-02-13T02:52:55.495Z,9.77
2023-02-13T02:55:38.173Z,10.30
2023-02-13T02:58:32.381Z,9.33
2023-02-13T03:01:22.924Z,9.90
2023-02-13T03:04:11.128Z,9.07
2023-02-13T03:06:47.876Z,9.40
2023-02-13T03:09:38.947Z,9.03
2023-02-13T03:12:28.314Z,9.03
2023-02-13T03:14:57.838Z,9.73
2023-02-13T03:17:44.622Z,8.77
2023-02-13T03:20:41.622Z,8.30
2023-02-13T03:23:21.728Z,8.27
2023-02-13T03:26:20.275Z,8.10
2023-02-13T03:29:14.077Z,7.50
2023-02-13T03:31:53.853Z,7.40
2023-02-13T03:34:46.457Z,7.23
2023-02-13T03:37:39.214Z,6.30
2023-02-13T03:40:16.999Z,7.17
2023-02-13T03:42:50.960Z,6.90
2023-02-13T03:45:41.001Z,7.70
2023-02-13T03:48:32.075Z,7.63
2023-02-13T03:51:02.213Z,7.03
2023-02-13T03:53:36.644Z,7.37
2023-02-13T03:56:27.293Z,7.47
2023-02-13T03:59:17.604Z,7.43
2023-02-13T04:01:52.531Z,7.20
2023-02-13T04:04:29.432Z,7.13
2023-02-13T04:07:01.908Z,6.70
2023-02-13T04:09:34.535Z,6.17
2023-02-13T04:12:14.315Z,6.50
2023-02-13T04:14:51.120Z,6.07
2023-02-13T04:17:25.440Z,5.43
2023-02-13T04:19:55.763Z,6.10
2023-02-13T04:22:25.146Z,5.63
2023-02-13T04:24:54.538Z,5.80
2023-02-13T04:27:28.985Z,6.53
2023-02-13T04:29:58.172Z,5.53
2023-02-13T04:32:27.361Z,7.27
2023-02-13T04:34:56.694Z,6.30
2023-02-13T04:37:26.135Z,5.93
2023-02-13T04:39:55.485Z,7.80
2023-02-13T04:42:25.997Z,5.53
2023-02-13T04:44:55.099Z,5.03
2023-02-13T04:47:24.617Z,5.40
2023-02-13T04:49:53.676Z,4.83
2023-02-13T04:52:23.190Z,5.50
2023-02-13T04:54:52.568Z,5.70
2023-02-13T04:57:21.651Z,5.37
2023-02-13T04:59:52.204Z,5.83
2023-02-13T05:02:21.544Z,5.70
2023-02-13T05:04:50.645Z,6.30
2023-02-13T05:07:19.996Z,6.63
2023-02-13T05:09:51.293Z,5.87
2023-02-13T05:12:20.562Z,6.90
2023-02-13T05:14:51.504Z,5.83
2023-02-13T05:17:20.595Z,6.17
2023-02-13T05:19:49.989Z,6.67
2023-02-13T05:22:36.419Z,7.57
2023-02-13T05:25:05.997Z,6.97
2023-02-13T05:27:35.069Z,6.93
2023-02-13T05:30:05.680Z,7.03
2023-02-13T05:32:35.236Z,7.93
2023-02-13T05:35:05.017Z,6.30
2023-02-13T05:37:34.287Z,7.43
2023-02-13T05:40:03.941Z,8.17
2023-02-13T05:42:35.307Z,7.03
2023-02-13T05:45:06.608Z,7.27
2023-02-13T05:47:35.844Z,7.60
2023-02-13T05:50:05.233Z,7.83
2023-02-13T05:52:34.491Z,6.97
2023-02-13T05:55:03.736Z,7.00
2023-02-13T05:57:34.696Z,7.00
2023-02-13T06:00:07.413Z,6.83
2023-02-13T06:02:37.219Z,6.40
2023-02-13T06:05:07.280Z,6.87
2023-02-13T06:07:36.413Z,6.37
2023-02-13T06:10:05.889Z,6.87
2023-02-13T06:12:35.019Z,7.60
2023-02-13T06:15:06.596Z,6.73
2023-02-13T06:17:35.811Z,6.67
2023-02-13T06:20:05.573Z,6.63
2023-02-13T06:22:34.668Z,6.60
2023-02-13T06:25:03.836Z,6.23
2023-02-13T06:27:33.256Z,7.50
2023-02-13T06:30:02.639Z,6.20
2023-02-13T06:32:33.329Z,6.67
2023-02-13T06:35:05.428Z,7.90
2023-02-13T06:37:35.187Z,6.83
2023-02-13T06:40:08.663Z,6.53
2023-02-13T06:42:37.933Z,5.93
2023-02-13T06:45:08.493Z,7.13
2023-02-13T06:47:43.288Z,7.07
2023-02-13T06:50:13.857Z,6.17
2023-02-13T06:52:47.887Z,7.17
2023-02-13T06:55:17.618Z,7.17
2023-02-13T06:57:47.620Z,7.13
2023-02-13T07:00:18.556Z,6.70
2023-02-13T07:02:49.637Z,7.10
2023-02-13T07:05:19.084Z,7.63
2023-02-13T07:07:48.202Z,6.83
2023-02-13T07:10:17.321Z,6.57
2023-02-13T07:12:53.930Z,6.23
2023-02-13T07:15:34.851Z,6.53
2023-02-13T07:18:06.300Z,5.40
2023-02-13T07:20:36.121Z,6.67
2023-02-13T07:23:06.609Z,5.23
2023-02-13T07:25:36.001Z,6.23
2023-02-13T07:28:06.484Z,6.17
2023-02-13T07:30:36.547Z,6.87
2023-02-13T07:33:08.194Z,6.27
2023-02-13T07:35:38.429Z,5.90
2023-02-13T07:38:07.561Z,7.00
2023-02-13T07:40:36.663Z,6.43
2023-02-13T07:43:05.905Z,6.87
2023-02-13T07:45:35.229Z,7.30
2023-02-13T07:48:04.604Z,6.43
2023-02-13T07:50:35.065Z,6.60
2023-02-13T07:53:04.373Z,6.30
2023-02-13T07:55:33.838Z,7.10
2023-02-13T07:58:02.963Z,8.00
2023-02-13T08:00:32.096Z,7.13
2023-02-13T08:03:01.833Z,7.13
2023-02-13T08:05:34.873Z,7.47
2023-02-13T08:08:05.773Z,7.60
2023-02-13T08:10:52.699Z,6.67
2023-02-13T08:13:21.859Z,7.50
2023-02-13T08:15:51.125Z,8.17
2023-02-13T08:18:20.313Z,8.33
2023-02-13T08:20:49.889Z,8.53
2023-02-13T08:23:20.377Z,8.47
2023-02-13T08:25:49.835Z,8.53
2023-02-13T08:28:19.405Z,8.67
2023-02-13T08:30:48.742Z,8.93
2023-02-13T08:33:18.118Z,8.67
2023-02-13T08:35:47.483Z,7.83
2023-02-13T08:38:16.702Z,8.13
2023-02-13T08:40:47.179Z,9.50
2023-02-13T08:43:16.360Z,7.27
2023-02-13T08:45:45.447Z,8.47
2023-02-13T08:48:14.560Z,8.50
2023-02-13T08:50:43.781Z,7.83
2023-02-13T08:53:13.438Z,8.13
2023-02-13T08:55:42.514Z,8.83
2023-02-13T08:58:13.413Z,8.83
2023-02-13T09:00:42.676Z,9.50
2023-02-13T09:03:11.839Z,9.17
2023-02-13T09:05:41.003Z,8.60
2023-02-13T09:08:11.721Z,8.80
2023-02-13T09:10:41.645Z,9.07
2023-02-13T09:13:12.111Z,9.77
2023-02-13T09:15:41.728Z,8.53
2023-02-13T09:18:10.808Z,8.93
2023-02-13T09:20:40.137Z,8.77
2023-02-13T09:23:09.251Z,8.73
2023-02-13T09:25:38.666Z,9.17
2023-02-13T09:28:08.275Z,9.33
2023-02-13T09:30:38.886Z,9.10
2023-02-13T09:33:12.865Z,8.53
2023-02-13T09:35:42.366Z,8.17
2023-02-13T09:38:11.564Z,8.73
2023-02-13T09:40:47.616Z,8.00
2023-02-13T09:43:24.176Z,9.43
2023-02-13T09:46:00.045Z,8.03
2023-02-13T09:48:33.435Z,9.37
2023-02-13T09:51:02.959Z,9.20
2023-02-13T09:53:33.380Z,9.77
2023-02-13T09:56:11.589Z,9.20
2023-02-13T09:58:45.500Z,8.80
2023-02-13T10:01:27.307Z,8.97
2023-02-13T10:04:22.020Z,8.90
2023-02-13T10:06:57.193Z,9.20
2023-02-13T10:09:34.495Z,9.13
2023-02-13T10:12:20.550Z,8.70
2023-02-13T10:14:59.453Z,8.03
2023-02-13T10:17:35.041Z,9.00
2023-02-13T10:20:06.972Z,9.67
2023-02-13T10:22:40.648Z,8.77
2023-02-13T10:25:17.216Z,10.13
2023-02-13T10:27:54.972Z,8.80
2023-02-13T10:30:27.691Z,8.40
2023-02-13T10:33:20.439Z,8.33
2023-02-13T10:35:55.734Z,7.93
2023-02-13T10:38:25.583Z,7.33
2023-02-13T10:41:07.185Z,7.10
2023-02-13T10:43:50.530Z,7.00
2023-02-13T10:46:30.864Z,7.73
2023-02-13T10:49:15.948Z,8.57
2023-02-13T10:51:53.507Z,8.13
2023-02-13T10:54:33.404Z,8.60
2023-02-13T10:57:11.936Z,8.03
2023-02-13T10:59:52.167Z,7.27
2023-02-13T11:02:26.246Z,14.40
2023-02-13T11:05:02.147Z,9.10
2023-02-13T11:07:32.494Z,7.73
2023-02-13T11:10:07.251Z,7.40
2023-02-13T11:12:36.612Z,7.37
2023-02-13T11:15:08.907Z,9.13
2023-02-13T11:17:43.419Z,7.87
2023-02-13T11:20:32.674Z,9.23
2023-02-13T11:23:33.978Z,8.57
2023-02-13T11:26:07.803Z,8.27
2023-02-13T11:28:40.760Z,7.80
2023-02-13T11:31:26.137Z,9.07
2023-02-13T11:33:58.807Z,7.80
2023-02-13T11:36:33.989Z,7.90
2023-02-13T11:39:05.980Z,7.50
2023-02-13T11:41:41.676Z,8.20
2023-02-13T11:44:24.828Z,7.13
2023-02-13T11:46:56.454Z,7.57
2023-02-13T11:49:27.544Z,7.67
2023-02-13T11:51:59.458Z,8.83
2023-02-13T11:54:33.940Z,8.90
2023-02-13T11:57:06.180Z,8.07
2023-02-13T11:59:43.178Z,7.27
2023-02-13T12:02:19.305Z,9.43
2023-02-13T12:04:49.641Z,8.20
2023-02-13T12:07:24.518Z,8.97
2023-02-13T12:10:01.899Z,8.90
2023-02-13T12:12:38.698Z,9.20
2023-02-13T12:15:18.542Z,8.87
2023-02-13T12:17:54.757Z,9.00
2023-02-13T12:20:25.437Z,9.57
2023-02-13T12:23:08.671Z,8.93
2023-02-13T12:25:59.773Z,10.20
2023-02-13T12:28:53.886Z,10.30
2023-02-13T12:31:46.782Z,9.80
2023-02-13T12:34:53.626Z,9.83
2023-02-13T12:37:41.375Z,9.30
2023-02-13T12:40:39.817Z,9.80
2023-02-13T12:43:41.690Z,10.07
2023-02-13T12:46:18.491Z,10.73
2023-02-13T12:48:53.984Z,10.63
2023-02-13T12:51:34.816Z,10.53
2023-02-13T12:54:28.218Z,9.90
2023-02-13T12:57:14.750Z,10.57
2023-02-13T12:59:56.970Z,10.87
2023-02-13T13:03:02.748Z,11.10
2023-02-13T13:06:03.631Z,10.93
2023-02-13T13:08:55.526Z,10.87
2023-02-13T13:11:38.793Z,10.40
2023-02-13T13:14:21.117Z,10.30
2023-02-13T13:17:00.483Z,10.27
2023-02-13T13:19:39.699Z,10.80
2023-02-13T13:22:18.337Z,11.27
2023-02-13T13:24:59.583Z,10.70
2023-02-13T13:27:33.580Z,10.03
2023-02-13T13:30:14.369Z,11.60
2023-02-13T13:32:46.831Z,13.80
2023-02-13T13:35:17.200Z,12.93
2023-02-13T13:38:02.620Z,11.90
2023-02-13T13:40:40.897Z,11.67
2023-02-13T13:43:20.792Z,10.37
2023-02-13T13:46:07.020Z,11.73
2023-02-13T13:49:01.804Z,11.50
2023-02-13T13:51:32.442Z,10.23
2023-02-13T13:54:26.396Z,10.70
2023-02-13T13:57:12.909Z,10.47
2023-02-13T14:00:04.005Z,10.83
2023-02-13T14:02:45.003Z,10.93
2023-02-13T14:05:32.021Z,10.47
2023-02-13T14:08:03.683Z,10.87
2023-02-13T14:11:09.687Z,11.17
2023-02-13T14:13:41.491Z,10.47
2023-02-13T14:16:13.259Z,10.80
2023-02-13T14:18:50.753Z,11.90
2023-02-13T14:21:25.679Z,11.37
2023-02-13T14:23:59.599Z,11.80
2023-02-13T14:26:43.822Z,12.00
2023-02-13T14:29:35.042Z,12.83
2023-02-13T14:32:18.898Z,11.43
2023-02-13T14:35:00.801Z,51.63
2023-02-13T14:37:40.224Z,15.97
2023-02-13T14:40:55.103Z,13.07
2023-02-13T14:43:43.875Z,17.87
2023-02-13T14:46:35.623Z,11.97
2023-02-13T14:49:14.030Z,11.77
2023-02-13T14:51:49.474Z,11.40
2023-02-13T14:54:29.835Z,12.50
2023-02-13T14:57:07.789Z,28.03
2023-02-13T14:59:41.870Z,15.23
2023-02-13T15:02:20.107Z,12.67
2023-02-13T15:04:55.167Z,11.83
2023-02-13T15:07:28.566Z,11.90
2023-02-13T15:10:02.865Z,10.87
2023-02-13T15:12:34.478Z,12.23
2023-02-13T15:15:18.767Z,11.30
2023-02-13T15:17:48.741Z,11.77
2023-02-13T15:20:25.167Z,12.27
2023-02-13T15:22:55.825Z,12.63
2023-02-13T15:25:32.892Z,11.13
2023-02-13T15:28:03.637Z,10.40
2023-02-13T15:30:36.184Z,11.73
2023-02-13T15:33:16.993Z,15.50
2023-02-13T15:35:46.453Z,14.40
2023-02-13T15:38:27.818Z,10.87
2023-02-13T15:41:00.749Z,12.00
2023-02-13T15:43:35.476Z,11.10
2023-02-13T15:46:09.657Z,10.63
2023-02-13T15:48:38.915Z,12.23
2023-02-13T15:51:08.483Z,18.60
2023-02-13T15:53:51.176Z,13.57
2023-02-13T15:56:20.324Z,10.47
2023-02-13T15:58:51.096Z,13.30
2023-02-13T16:01:20.459Z,11.47
2023-02-13T16:03:52.289Z,12.70
2023-02-13T16:06:24.788Z,10.63
2023-02-13T16:08:57.698Z,9.80
2023-02-13T16:11:33.474Z,9.87
2023-02-13T16:14:16.395Z,9.30
2023-02-13T16:16:52.430Z,9.40
2023-02-13T16:19:34.665Z,13.80
2023-02-13T16:22:25.539Z,10.77
2023-02-13T16:25:04.263Z,11.23
2023-02-13T16:27:35.118Z,10.33
2023-02-13T16:30:07.500Z,13.37
2023-02-13T16:32:38.955Z,12.57
2023-02-13T16:35:27.202Z,10.73
2023-02-13T16:38:00.145Z,11.10
2023-02-13T16:40:40.115Z,10.60
2023-02-13T16:43:34.852Z,11.80
2023-02-13T16:46:36.268Z,9.73
2023-02-13T16:49:20.545Z,12.43
2023-02-13T16:51:56.367Z,10.97
2023-02-13T16:54:34.579Z,10.57
2023-02-13T16:57:17.475Z,9.50
2023-02-13T17:00:08.396Z,9.83
2023-02-13T17:02:38.239Z,10.87
2023-02-13T17:05:20.252Z,10.93
2023-02-13T17:07:51.327Z,9.83
2023-02-13T17:10:23.505Z,11.57
2023-02-13T17:12:54.550Z,9.53
2023-02-13T17:15:25.402Z,9.93
2023-02-13T17:17:54.654Z,12.27
2023-02-13T17:20:26.398Z,10.67
2023-02-13T17:22:57.227Z,11.27
2023-02-13T17:25:28.100Z,10.20
2023-02-13T17:28:00.077Z,10.87
2023-02-13T17:30:30.988Z,11.27
2023-02-13T17:33:01.840Z,10.47
2023-02-13T17:35:31.332Z,12.47
2023-02-13T17:38:02.844Z,13.00
2023-02-13T17:40:32.039Z,12.33
2023-02-13T17:43:02.984Z,10.90
2023-02-13T17:45:34.526Z,10.80
2023-02-13T17:48:04.851Z,10.23
2023-02-13T17:50:35.524Z,10.70
2023-02-13T17:53:07.729Z,11.50
2023-02-13T17:55:37.317Z,10.50
2023-02-13T17:58:07.848Z,10.43
2023-02-13T18:00:37.075Z,11.07
2023-02-13T18:03:06.459Z,11.27
2023-02-13T18:05:35.822Z,10.77
2023-02-13T18:08:05.255Z,11.77
2023-02-13T18:10:39.419Z,11.10
2023-02-13T18:13:10.121Z,11.20
2023-02-13T18:15:44.167Z,11.40
2023-02-13T18:18:16.249Z,11.43
2023-02-13T18:20:49.645Z,11.30
2023-02-13T18:23:18.876Z,11.57
2023-02-13T18:25:50.451Z,11.83
2023-02-13T18:28:21.541Z,12.30
2023-02-13T18:30:50.739Z,11.60
2023-02-13T18:33:19.855Z,10.10
2023-02-13T18:35:49.136Z,11.57
2023-02-13T18:38:18.200Z,11.03
2023-02-13T18:40:47.289Z,14.40
2023-02-13T18:43:16.667Z,10.90
2023-02-13T18:45:47.233Z,11.77
2023-02-13T18:48:16.639Z,11.07
2023-02-13T18:50:45.755Z,11.70
2023-02-13T18:53:15.071Z,13.27
2023-02-13T18:55:44.199Z,10.77
2023-02-13T18:58:16.498Z,13.20
2023-02-13T19:00:47.158Z,25.80
2023-02-13T19:03:18.192Z,14.07
2023-02-13T19:05:47.354Z,11.97
2023-02-13T19:08:16.474Z,11.10
2023-02-13T19:10:45.577Z,13.37
2023-02-13T19:13:14.872Z,13.50
2023-02-13T19:15:44.264Z,14.20
2023-02-13T19:18:15.159Z,12.73
2023-02-13T19:20:44.347Z,13.67
2023-02-13T19:23:13.828Z,12.57
2023-02-13T19:25:43.055Z,13.27
2023-02-13T19:28:12.241Z,13.53
2023-02-13T19:30:42.060Z,13.23
2023-02-13T19:33:11.400Z,11.87
2023-02-13T19:35:42.797Z,11.33
2023-02-13T19:38:13.308Z,13.37
2023-02-13T19:40:45.973Z,11.83
2023-02-13T19:43:15.137Z,11.80
2023-02-13T19:45:44.793Z,12.90
2023-02-13T19:48:13.954Z,13.17
2023-02-13T19:50:44.746Z,12.47
2023-02-13T19:53:14.124Z,12.83
2023-02-13T19:55:43.901Z,11.93
2023-02-13T19:58:14.212Z,13.60
2023-02-13T20:00:43.686Z,12.37
2023-02-13T20:03:14.676Z,13.67
2023-02-13T20:05:45.399Z,13.70
2023-02-13T20:08:15.051Z,12.70
2023-02-13T20:10:45.947Z,12.83
2023-02-13T20:13:15.368Z,13.73
2023-02-13T20:15:44.926Z,13.13
2023-02-13T20:18:17.023Z,13.30
2023-02-13T20:20:47.571Z,12.80
2023-02-13T20:23:17.940Z,13.63
2023-02-13T20:25:47.338Z,12.73
2023-02-13T20:28:16.689Z,13.33
2023-02-13T20:30:46.106Z,13.07
2023-02-13T20:33:15.318Z,13.00
2023-02-13T20:35:46.504Z,12.53
2023-02-13T20:38:15.565Z,13.63
2023-02-13T20:40:45.004Z,13.90
2023-02-13T20:43:14.290Z,13.47
2023-02-13T20:45:43.571Z,13.73
2023-02-13T20:48:12.754Z,13.83
2023-02-13T20:50:42.033Z,12.20
2023-02-13T20:53:13.237Z,13.07
2023-02-13T20:55:42.365Z,13.27
2023-02-13T20:58:12.130Z,12.87
2023-02-13T21:00:41.396Z,12.33
2023-02-13T21:03:10.530Z,12.10
2023-02-13T21:05:39.649Z,11.87
2023-02-13T21:08:08.848Z,12.43
2023-02-13T21:10:40.559Z,12.40
2023-02-13T21:13:10.235Z,12.20
2023-02-13T21:15:39.728Z,13.07
2023-02-13T21:18:09.457Z,11.53
2023-02-13T21:20:38.573Z,11.77
2023-02-13T21:23:07.691Z,12.33
2023-02-13T21:25:36.796Z,11.50
2023-02-13T21:28:07.344Z,11.67
2023-02-13T21:30:37.717Z,13.47
2023-02-13T21:33:06.786Z,12.33
2023-02-13T21:35:35.920Z,12.40
2023-02-13T21:38:05.005Z,13.10
2023-02-13T21:40:34.431Z,12.23
2023-02-13T21:43:03.546Z,12.17
2023-02-13T21:45:34.036Z,12.33
2023-02-13T21:48:03.092Z,12.10
2023-02-13T21:50:32.154Z,12.23
2023-02-13T21:53:01.217Z,13.23
2023-02-13T21:55:30.799Z,13.13
2023-02-13T21:57:59.846Z,12.33
2023-02-13T22:00:28.918Z,12.90
2023-02-13T22:02:59.449Z,12.57
2023-02-13T22:05:28.512Z,12.90
2023-02-13T22:08:12.605Z,11.60
2023-02-13T22:10:41.780Z,12.43
2023-02-13T22:13:10.864Z,12.73
2023-02-13T22:15:39.942Z,11.93
2023-02-13T22:18:10.339Z,13.43
2023-02-13T22:20:39.789Z,11.63
2023-02-13T22:23:08.830Z,12.70
2023-02-13T22:25:37.898Z,12.73
2023-02-13T22:28:07.001Z,12.47
2023-02-13T22:30:38.140Z,11.53
2023-02-13T22:33:07.336Z,11.80
2023-02-13T22:35:40.441Z,11.07
2023-02-13T22:38:09.959Z,12.40
2023-02-13T22:40:39.754Z,12.17
2023-02-13T22:43:09.535Z,11.83
2023-02-13T22:45:39.327Z,12.40
2023-02-13T22:48:08.854Z,11.60
2023-02-13T22:50:39.297Z,11.97
2023-02-13T22:53:08.354Z,12.27
2023-02-13T22:55:37.412Z,11.67
2023-02-13T22:58:06.482Z,12.20
2023-02-13T23:00:35.569Z,11.13
2023-02-13T23:03:04.773Z,12.60
2023-02-13T23:05:33.872Z,12.20
2023-02-13T23:08:04.460Z,11.70
2023-02-13T23:10:33.538Z,12.37
2023-02-13T23:13:01.803Z,12.63
2023-02-13T23:15:34.270Z,11.00
2023-02-13T23:18:15.039Z,12.17
2023-02-13T23:20:45.527Z,12.40
2023-02-13T23:23:16.009Z,10.90
2023-02-13T23:25:45.081Z,11.83
2023-02-13T23:28:14.168Z,12.67
2023-02-13T23:30:43.282Z,12.33
2023-02-13T23:33:12.495Z,13.50
2023-02-13T23:35:41.578Z,12.33
2023-02-13T23:38:10.675Z,13.03
2023-02-13T23:40:41.099Z,12.47
2023-02-13T23:43:10.229Z,12.33
2023-02-13T23:45:39.346Z,11.63
2023-02-13T23:48:10.150Z,12.53
2023-02-13T23:50:39.548Z,12.23
2023-02-13T23:53:08.681Z,11.77
2023-02-13T23:55:37.736Z,12.30
2023-02-13T23:58:08.180Z,12.30
